Marshall, Virginia
Current Conditions -  °F | °C
As of 10:35 AM on Sunday 21 Dec 2014 (Local Time) from KHWY Reporting Station
Overcast Overcast  
Wind Chill: 37°   Ceiling: 7000
Heat Index: 37°   Visibility: 10mi
Dew Point: 31°   Wind: 0mph
Humidity: 77%   Direction: NA
Pressure: 30.36"   Gusts: NA
Location:  38.86°N, 77.86°W
Report Text: KHWY 211535Z AUTO 00000KT 10SM OVC070 03/M01 A3036 RMK AO2 T00301007
Loading
Personal Weather Stations






























Interactive Weather Map New forecast layout! Learn more

10-Day Weather Forecast

Advertisements
Track Severe Weather on mobile